Portada
METAR-TAF:

METAR-TAF

Aeropuertos :

Dax, Francia

Seyresse

latitud: 43-41N, longitud: 001-04W, altitud: 32 m

Observación

El informe se hizo hace 20 minutos, a las 11:00 UTC
Viento 8 kt del suroeste, variando entre sur y oeste
Temperatura 20°C
Humedad 37%
Presión 1013 hPa
Visibilidad 10 km o más
sin nubes por debajo de 1500 m y sin presencia de cumulonimbus.

METAR: LFBY 231100Z 22008KT 190V260 CAVOK 20/05 Q1013

Hora: 12:20 (11:20 UTC)

Pronóstico

El informe se hizo hace 3 horas y 20 minutos, a las 08:00 UTC
Pronóstico válido del 23 a las 09 UTC al 23 a las 18 UTC
Viento 8 kt del suroeste
Visibilidad 10 km o más
sin nubes por debajo de 1500 m y sin presencia de cumulonimbus.
Temporalmente
del 23 a las 09 UTC al 23 a las 16 UTC
Viento 10 kt del oeste-suroeste con ráfagas de 20 kt

TAF: LFBY 230800Z 2309/2318 22008KT CAVOK TEMPO 2309/2316 25010G20KT

Observaciones y pronósticos meteorológicos de más de 4000 aeropuertos (mensajes METAR y TAF).

Los puntos amarillos y rojos representan las estaciones disponibles.

Ponga el ratón en el punto deseado para ver el nombre de la estación.

Haga clic para ver las observaciones y los pronósticos meteorológicos.

Para cambiar el mapa : haga clic en los botones verdes con una cruz de color negro para hacer un zoom, en el botón verde con un guión para alejar o en las flechas verdes para mapas adyacentes.


METAR-TAF: